Time;durP1;ratioP1;P1;durP2;ratioP2;P2;SDS_P1;SDS_P2;PMS_P1;PMS_P2;Temp;Humidity;BMP_temperature;BMP_pressure;BME280_temperature;BME280_humidity;BME280_pressure;Samples;Min_cycle;Max_cycle;Signal;HPM_P1;HPM_P2
2022/08/14 00:00:19;;;;;;;7.85;7.07;;;20.60;99.90;;;;;;4991986;28;20054;-88
2022/08/14 00:02:46;;;;;;;9.48;7.38;;;20.40;99.90;;;;;;5001021;28;20125;-87
2022/08/14 00:05:14;;;;;;;11.23;7.75;;;20.40;99.90;;;;;;4977076;28;20093;-89
2022/08/14 00:07:40;;;;;;;7.70;6.90;;;20.40;99.90;;;;;;4994051;28;20050;-86
2022/08/14 00:10:08;;;;;;;8.75;7.68;;;20.40;99.90;;;;;;4976549;28;20069;-84
2022/08/14 00:12:36;;;;;;;9.27;7.90;;;20.30;99.90;;;;;;4960874;28;20054;-86
2022/08/14 00:15:03;;;;;;;11.10;8.13;;;20.30;99.90;;;;;;4976617;28;20093;-86
2022/08/14 00:17:29;;;;;;;8.25;7.53;;;20.20;99.90;;;;;;4992658;28;20073;-85
2022/08/14 00:19:54;;;;;;;9.50;8.48;;;20.20;99.90;;;;;;4993643;28;20470;-86
2022/08/14 00:22:21;;;;;;;11.20;8.30;;;20.10;99.90;;;;;;4960229;28;20054;-85
2022/08/14 00:24:46;;;;;;;9.98;8.52;;;20.20;99.90;;;;;;4993767;28;20409;-86
2022/08/14 00:27:12;;;;;;;9.52;8.18;;;20.20;99.90;;;;;;4976203;28;20046;-86
2022/08/14 00:29:38;;;;;;;8.50;7.60;;;20.10;99.90;;;;;;4976249;28;20046;-85
2022/08/14 00:32:04;;;;;;;14.07;8.98;;;20.10;99.90;;;;;;4978224;28;20153;-86
2022/08/14 00:34:29;;;;;;;10.32;9.32;;;20.10;99.90;;;;;;4995581;28;20048;-86
2022/08/14 00:36:55;;;;;;;10.95;9.05;;;20.10;99.90;;;;;;4998102;28;20070;-87
2022/08/14 00:39:22;;;;;;;10.88;9.63;;;20.00;99.90;;;;;;5009890;28;20512;-85
2022/08/14 00:41:48;;;;;;;10.70;9.80;;;19.90;99.90;;;;;;4994443;28;20099;-86
2022/08/14 00:44:14;;;;;;;9.95;9.02;;;19.90;99.90;;;;;;4975554;28;20454;-86
2022/08/14 00:46:39;;;;;;;10.68;9.57;;;20.00;99.90;;;;;;4993572;28;20042;-85
2022/08/14 00:49:07;;;;;;;10.98;9.70;;;19.90;99.90;;;;;;4993252;28;20088;-85
2022/08/14 00:51:33;;;;;;;10.05;9.05;;;19.90;99.90;;;;;;4959953;28;20486;-87
2022/08/14 00:53:59;;;;;;;10.73;9.63;;;19.90;99.90;;;;;;4975826;28;20050;-86
2022/08/14 00:56:25;;;;;;;10.25;9.25;;;19.80;99.90;;;;;;4959713;28;20104;-85
2022/08/14 00:58:53;;;;;;;11.35;9.60;;;19.80;99.90;;;;;;4959846;28;20144;-86
2022/08/14 01:01:19;;;;;;;11.05;9.60;;;19.70;99.90;;;;;;4944479;28;20379;-86
2022/08/14 01:03:44;;;;;;;11.02;9.85;;;19.70;99.90;;;;;;4993299;28;20046;-86
2022/08/14 01:06:11;;;;;;;11.95;9.93;;;19.60;99.90;;;;;;4960230;28;20461;-85
2022/08/14 01:08:37;;;;;;;11.60;10.40;;;19.60;99.90;;;;;;4993056;28;20038;-85
2022/08/14 01:11:03;;;;;;;11.80;10.30;;;19.60;99.90;;;;;;4976321;28;20104;-84
2022/08/14 01:13:31;;;;;;;10.98;9.98;;;19.60;99.90;;;;;;4975408;28;20058;-85
2022/08/14 01:16:00;;;;;;;12.98;10.02;;;19.60;99.90;;;;;;4959828;28;20121;-85
2022/08/14 01:21:39;;;;;;;12.05;10.85;;;19.50;99.90;;;;;;4940548;28;20147;-85
2022/08/14 01:24:09;;;;;;;11.30;10.20;;;19.40;99.90;;;;;;4961633;28;20077;-85
2022/08/14 01:26:35;;;;;;;12.45;11.32;;;19.40;99.90;;;;;;4981490;28;20050;-87
2022/08/14 01:29:01;;;;;;;12.02;10.93;;;19.40;99.90;;;;;;4997261;28;20045;-86
2022/08/14 01:31:29;;;;;;;11.38;10.23;;;19.40;99.90;;;;;;5001776;28;20034;-87
2022/08/14 01:33:56;;;;;;;13.32;11.30;;;19.30;99.90;;;;;;5002078;28;20044;-89
2022/08/14 01:36:23;;;;;;;12.90;11.50;;;19.20;99.90;;;;;;4979961;28;20054;-86
2022/08/14 01:38:50;;;;;;;12.48;11.32;;;19.20;99.90;;;;;;4998263;28;20050;-86
2022/08/14 01:41:19;;;;;;;14.02;11.73;;;19.20;99.90;;;;;;4978250;28;20042;-86
2022/08/14 01:43:53;;;;;;;12.68;11.40;;;19.20;99.90;;;;;;4947676;28;20038;-86
2022/08/14 01:46:21;;;;;;;12.73;11.48;;;19.20;99.90;;;;;;4962978;28;20093;-86
2022/08/14 01:48:47;;;;;;;12.90;11.60;;;19.20;99.90;;;;;;4978572;28;20100;-86
2022/08/14 01:51:15;;;;;;;13.35;11.95;;;19.20;99.90;;;;;;4995477;28;20054;-85
2022/08/14 01:53:43;;;;;;;14.25;12.80;;;19.20;99.90;;;;;;4995893;28;20088;-85
2022/08/14 01:56:08;;;;;;;13.65;11.98;;;19.20;99.90;;;;;;4963760;28;20100;-85
2022/08/14 01:58:34;;;;;;;13.98;12.05;;;19.10;99.90;;;;;;4979273;28;20053;-87
2022/08/14 02:01:00;;;;;;;13.50;11.55;;;19.10;99.90;;;;;;5014967;28;20044;-86
2022/08/14 02:03:29;;;;;;;13.68;12.38;;;19.20;99.90;;;;;;4981226;28;20461;-86
2022/08/14 02:05:58;;;;;;;13.45;12.05;;;19.10;99.90;;;;;;4996695;28;20081;-86
2022/08/14 02:08:25;;;;;;;13.45;12.05;;;19.00;99.90;;;;;;4978046;28;20046;-87
2022/08/14 02:11:15;;;;;;;13.23;11.70;;;19.00;99.90;;;;;;4946288;28;20082;-86
2022/08/14 02:13:38;;;;;;;15.57;12.25;;;18.90;99.90;;;;;;4924992;28;1153164;-86
2022/08/14 02:16:05;;;;;;;14.27;12.85;;;18.90;99.90;;;;;;4996334;28;20054;-88
2022/08/14 02:18:31;;;;;;;14.27;12.77;;;18.90;99.90;;;;;;4996059;28;20105;-86
2022/08/14 02:20:57;;;;;;;14.52;12.63;;;18.90;99.90;;;;;;4962961;28;20100;-88
2022/08/14 02:23:23;;;;;;;14.50;13.02;;;18.90;99.90;;;;;;4978248;28;20379;-86
2022/08/14 02:25:49;;;;;;;15.07;13.13;;;18.90;99.90;;;;;;4995935;28;20038;-85
2022/08/14 02:28:15;;;;;;;14.68;13.20;;;18.80;99.90;;;;;;4978595;28;20192;-85
2022/08/14 02:30:41;;;;;;;16.88;13.18;;;18.70;99.90;;;;;;4978261;28;20089;-86
2022/08/14 02:33:07;;;;;;;14.80;13.30;;;18.80;99.90;;;;;;4995958;28;20049;-87
2022/08/14 02:35:33;;;;;;;13.98;12.38;;;18.80;99.90;;;;;;4994712;28;20050;-85
2022/08/14 02:37:59;;;;;;;14.60;13.20;;;18.70;99.90;;;;;;4962316;28;20045;-87
2022/08/14 02:40:26;;;;;;;14.77;13.32;;;18.80;99.90;;;;;;4962103;28;20054;-85
2022/08/14 02:42:54;;;;;;;16.23;13.43;;;18.80;99.90;;;;;;4995357;28;20553;-85
2022/08/14 02:45:22;;;;;;;15.68;13.30;;;18.80;99.90;;;;;;4978477;28;20050;-85
2022/08/14 02:47:48;;;;;;;15.27;12.98;;;18.80;99.90;;;;;;4978219;28;20089;-86
2022/08/14 02:50:15;;;;;;;15.55;13.93;;;18.80;99.90;;;;;;4995708;28;20081;-85
2022/08/14 02:52:41;;;;;;;17.02;13.40;;;18.60;99.90;;;;;;4962710;28;20473;-86
2022/08/14 02:55:08;;;;;;;15.27;13.68;;;18.60;99.90;;;;;;4978538;28;20053;-86
2022/08/14 02:57:33;;;;;;;15.45;13.85;;;18.60;99.90;;;;;;4978164;28;20537;-86
2022/08/14 02:59:59;;;;;;;16.27;14.57;;;18.60;99.90;;;;;;4962073;28;20086;-85
2022/08/14 03:02:25;;;;;;;16.70;14.90;;;18.50;99.90;;;;;;4997382;28;20088;-87
2022/08/14 03:04:52;;;;;;;17.13;15.32;;;18.50;99.90;;;;;;4949063;28;20096;-87
2022/08/14 03:07:18;;;;;;;17.60;14.73;;;18.40;99.90;;;;;;4999638;28;20073;-88
2022/08/14 03:09:44;;;;;;;16.27;14.65;;;18.50;99.90;;;;;;5018351;28;20089;-87
2022/08/14 03:12:11;;;;;;;16.33;14.63;;;18.40;99.90;;;;;;5015953;28;20042;-87
2022/08/14 03:14:41;;;;;;;18.42;15.60;;;18.40;99.90;;;;;;4997250;28;20119;-88
2022/08/14 03:17:09;;;;;;;20.90;15.55;;;18.40;99.90;;;;;;5006282;28;20058;-86
2022/08/14 03:19:35;;;;;;;19.15;15.07;;;18.40;99.90;;;;;;5005857;28;20083;-85
2022/08/14 03:22:00;;;;;;;18.38;14.93;;;18.40;99.90;;;;;;5015713;28;20046;-83
2022/08/14 03:24:26;;;;;;;18.20;16.40;;;18.30;99.90;;;;;;5003689;28;20097;-85
2022/08/14 03:26:55;;;;;;;19.25;17.25;;;18.30;99.90;;;;;;4979338;28;20069;-86
2022/08/14 03:29:20;;;;;;;19.58;15.77;;;18.40;99.90;;;;;;4995941;28;20430;-85
2022/08/14 03:31:50;;;;;;;17.88;15.98;;;18.40;99.90;;;;;;4995054;28;20039;-86
2022/08/14 03:34:17;;;;;;;18.27;16.38;;;18.40;99.90;;;;;;4995315;28;20109;-85
2022/08/14 03:36:43;;;;;;;17.52;15.73;;;18.30;99.90;;;;;;4978447;28;20045;-85
2022/08/14 03:39:09;;;;;;;19.38;17.35;;;18.30;99.90;;;;;;4977851;28;20469;-87
2022/08/14 03:41:35;;;;;;;20.02;17.42;;;18.50;99.90;;;;;;4977881;28;20513;-87
2022/08/14 03:44:02;;;;;;;18.48;16.58;;;18.50;99.90;;;;;;4961886;28;20054;-86
2022/08/14 03:46:29;;;;;;;19.10;16.33;;;18.50;99.90;;;;;;4961454;28;20647;-86
2022/08/14 03:48:55;;;;;;;20.52;17.50;;;18.40;99.90;;;;;;4994439;28;20046;-86
2022/08/14 03:51:23;;;;;;;18.83;16.15;;;18.40;99.90;;;;;;4977298;28;20085;-87
2022/08/14 03:53:50;;;;;;;19.00;17.05;;;18.30;99.90;;;;;;4994611;28;20059;-84
2022/08/14 03:56:16;;;;;;;16.30;14.55;;;18.30;99.90;;;;;;4994852;28;20097;-87
2022/08/14 03:58:48;;;;;;;18.40;16.45;;;18.40;99.90;;;;;;4977133;28;20088;-85
2022/08/14 04:01:14;;;;;;;18.40;15.65;;;18.30;99.90;;;;;;4977518;28;20050;-85
2022/08/14 04:03:40;;;;;;;18.48;16.35;;;18.30;99.90;;;;;;4994246;28;20054;-85
2022/08/14 04:06:07;;;;;;;19.40;16.70;;;18.20;99.90;;;;;;4977190;28;20110;-86
2022/08/14 04:08:39;;;;;;;21.50;16.85;;;18.20;99.90;;;;;;4977220;28;20046;-86
2022/08/14 04:11:06;;;;;;;21.30;16.80;;;18.10;99.90;;;;;;4994110;28;20050;-86
2022/08/14 04:13:33;;;;;;;22.67;17.70;;;18.10;99.90;;;;;;4960215;28;20065;-86
2022/08/14 04:15:59;;;;;;;19.30;17.17;;;18.20;99.90;;;;;;4977072;28;20506;-87
2022/08/14 04:18:24;;;;;;;19.48;17.45;;;18.30;99.90;;;;;;4960735;28;20066;-86
2022/08/14 04:20:50;;;;;;;18.48;16.38;;;18.30;99.90;;;;;;4976613;28;20058;-86
2022/08/14 04:23:18;;;;;;;18.98;16.98;;;18.40;99.90;;;;;;4976920;28;20081;-85
2022/08/14 04:25:44;;;;;;;20.75;17.08;;;18.30;99.90;;;;;;4976756;28;20054;-85
2022/08/14 04:28:10;;;;;;;18.75;16.85;;;18.30;99.90;;;;;;4976945;28;20446;-85
2022/08/14 04:30:38;;;;;;;19.08;16.95;;;18.30;99.90;;;;;;4993993;28;20085;-84
2022/08/14 04:33:04;;;;;;;18.90;16.77;;;18.30;99.90;;;;;;4994144;28;20200;-86
2022/08/14 04:35:30;;;;;;;21.20;16.05;;;18.30;99.90;;;;;;4976017;28;20061;-86
2022/08/14 04:43:38;;;;;;;19.00;16.85;;;18.30;99.90;;;;;;4997050;28;20066;-85
2022/08/14 04:46:14;;;;;;;19.00;16.20;;;18.40;99.90;;;;;;4999669;28;20034;-87
2022/08/14 04:48:40;;;;;;;17.75;15.90;;;18.70;99.90;;;;;;4977823;28;20057;-91
2022/08/14 04:51:07;;;;;;;17.80;15.90;;;18.90;99.90;;;;;;4988677;28;20046;-87
2022/08/14 04:53:33;;;;;;;17.17;15.45;;;19.30;99.90;;;;;;4977372;28;20486;-85
2022/08/14 04:55:59;;;;;;;17.27;15.55;;;19.90;99.90;;;;;;4993803;28;20487;-86
2022/08/14 04:58:29;;;;;;;17.70;15.90;;;20.40;99.90;;;;;;4961216;28;20408;-87
2022/08/14 05:00:56;;;;;;;16.70;15.00;;;20.90;99.90;;;;;;4979790;28;20050;-86
2022/08/14 05:03:27;;;;;;;16.70;15.00;;;21.30;99.90;;;;;;4997258;28;20054;-87
2022/08/14 05:05:57;;;;;;;16.55;14.45;;;21.70;99.90;;;;;;4996648;28;20469;-88
2022/08/14 05:08:23;;;;;;;16.35;14.70;;;22.10;99.90;;;;;;4964024;28;20056;-86
2022/08/14 05:10:50;;;;;;;16.50;14.43;;;22.40;99.90;;;;;;4962623;28;20548;-86
2022/08/14 05:13:16;;;;;;;18.98;14.35;;;22.70;99.90;;;;;;4947126;28;20109;-86
2022/08/14 05:15:43;;;;;;;15.50;13.77;;;23.00;99.90;;;;;;4962270;28;20490;-85
2022/08/14 05:18:18;;;;;;;15.93;14.32;;;23.10;99.90;;;;;;4974194;28;20042;-86
2022/08/14 05:20:51;;;;;;;14.52;13.07;;;23.30;99.90;;;;;;4979043;28;20073;-85
2022/08/14 05:23:18;;;;;;;;;;;23.70;99.90;;;;;;4963494;28;20100;-86
2022/08/14 05:25:45;;;;;;;14.48;13.07;;;24.10;99.90;;;;;;4996287;28;20012;-85
2022/08/14 05:28:11;;;;;;;15.30;13.43;;;24.30;99.90;;;;;;4990797;28;20602;-86
2022/08/14 05:30:37;;;;;;;15.45;13.85;;;24.60;99.90;;;;;;4996282;28;20345;-85
2022/08/14 05:33:04;;;;;;;15.30;13.65;;;24.70;99.90;;;;;;4995773;28;20046;-85
2022/08/14 05:35:31;;;;;;;15.18;13.77;;;24.60;99.90;;;;;;4973689;28;20482;-84
2022/08/14 05:37:58;;;;;;;14.75;13.25;;;24.80;99.90;;;;;;4962724;28;20182;-83
2022/08/14 05:40:24;;;;;;;15.57;14.07;;;24.80;99.90;;;;;;4995044;28;20057;-86
2022/08/14 05:42:50;;;;;;;17.33;14.63;;;24.70;99.90;;;;;;4996041;28;20050;-85
2022/08/14 05:45:16;;;;;;;21.08;14.52;;;25.00;99.90;;;;;;4989498;28;20034;-85
2022/08/14 05:47:42;;;;;;;16.25;14.65;;;25.20;99.90;;;;;;4978831;28;20038;-86
2022/08/14 05:50:10;;;;;;;15.75;14.13;;;25.30;99.90;;;;;;4978316;28;20050;-86
2022/08/14 05:52:35;;;;;;;15.30;13.60;;;25.60;99.90;;;;;;4978949;28;20121;-85
2022/08/14 05:55:02;;;;;;;15.13;13.50;;;25.80;99.90;;;;;;4962039;28;20489;-85
2022/08/14 05:57:28;;;;;;;15.23;13.73;;;25.70;99.90;;;;;;4980391;28;20431;-85
2022/08/14 05:59:54;;;;;;;15.60;14.00;;;26.00;99.90;;;;;;4978642;28;20082;-85
2022/08/14 06:02:19;;;;;;;14.27;12.98;;;25.90;99.90;;;;;;4996785;28;20054;-83
2022/08/14 06:04:47;;;;;;;13.38;12.25;;;26.50;99.90;;;;;;4996268;28;20046;-86
2022/08/14 06:07:16;;;;;;;14.05;12.88;;;26.80;99.90;;;;;;4991006;28;20046;-85
2022/08/14 06:09:47;;;;;;;13.48;12.23;;;27.30;99.90;;;;;;4964166;28;20512;-85
2022/08/14 06:12:13;;;;;;;16.33;13.02;;;27.50;99.90;;;;;;4963835;28;20046;-87
2022/08/14 06:14:38;;;;;;;14.32;12.93;;;26.90;99.90;;;;;;4979400;28;20096;-86
2022/08/14 06:17:04;;;;;;;14.45;13.13;;;27.10;99.90;;;;;;4984274;28;20100;-88
2022/08/14 06:19:30;;;;;;;14.40;12.80;;;27.20;99.90;;;;;;4986821;28;20058;-86
2022/08/14 06:21:56;;;;;;;13.43;12.13;;;27.80;99.90;;;;;;5015702;28;20050;-87
2022/08/14 06:24:21;;;;;;;13.18;11.98;;;28.20;99.90;;;;;;5010832;28;20057;-87
2022/08/14 06:26:47;;;;;;;13.52;12.18;;;27.70;99.90;;;;;;4969788;28;20130;-88
2022/08/14 06:29:13;;;;;;;13.85;11.90;;;27.90;99.90;;;;;;4979616;28;20213;-87
2022/08/14 06:31:47;;;;;;;13.93;12.02;;;28.20;99.90;;;;;;4979967;28;20137;-86
2022/08/14 06:34:13;;;;;;;12.43;11.32;;;28.80;99.90;;;;;;4979150;28;20077;-86
2022/08/14 06:36:39;;;;;;;13.00;11.48;;;28.60;99.80;;;;;;4979490;28;20050;-88
2022/08/14 06:39:04;;;;;;;12.50;11.30;;;28.80;99.90;;;;;;4977911;28;20518;-87
2022/08/14 06:41:31;;;;;;;12.77;11.65;;;28.60;99.80;;;;;;4996583;28;20158;-89
2022/08/14 06:43:56;;;;;;;11.68;10.68;;;29.00;99.70;;;;;;4995030;28;20050;-87
2022/08/14 06:46:22;;;;;;;12.77;11.52;;;29.10;99.40;;;;;;4978449;28;20061;-86
2022/08/14 06:48:48;;;;;;;17.10;11.18;;;29.60;99.50;;;;;;4978678;28;20050;-86
2022/08/14 06:51:13;;;;;;;13.35;10.85;;;30.20;99.00;;;;;;4960942;28;20039;-86
2022/08/14 06:53:39;;;;;;;12.02;10.88;;;29.30;99.40;;;;;;4993564;28;20046;-86
2022/08/14 06:56:05;;;;;;;11.63;10.30;;;29.50;99.00;;;;;;4989894;28;20143;-87
2022/08/14 06:58:31;;;;;;;11.13;10.02;;;29.60;98.70;;;;;;5004283;28;20050;-87
2022/08/14 07:06:24;;;;;;;10.95;9.95;;;30.30;98.10;;;;;;4980443;28;20061;-89
2022/08/14 07:08:51;;;;;;;10.50;9.32;;;30.00;98.00;;;;;;4996219;28;20054;-87
2022/08/14 07:11:18;;;;;;;10.30;9.40;;;30.30;98.10;;;;;;4996948;28;20450;-87
2022/08/14 07:13:44;;;;;;;10.52;9.63;;;30.10;98.10;;;;;;4996508;28;20092;-87
2022/08/14 07:16:11;;;;;;;10.52;9.63;;;29.90;98.30;;;;;;4979337;28;20137;-87
2022/08/14 07:18:37;;;;;;;10.60;9.63;;;30.40;98.10;;;;;;4995616;28;20374;-89
2022/08/14 07:21:04;;;;;;;10.48;9.57;;;30.50;98.00;;;;;;4977476;28;20057;-87
2022/08/14 07:23:30;;;;;;;10.80;9.00;;;30.60;97.70;;;;;;4978702;28;20131;-88
2022/08/14 07:25:56;;;;;;;11.45;9.55;;;30.30;97.80;;;;;;5003085;28;20111;-87
2022/08/14 07:28:25;;;;;;;10.05;9.07;;;29.90;98.20;;;;;;4995621;28;20050;-88
2022/08/14 07:30:56;;;;;;;9.90;9.00;;;30.10;98.10;;;;;;4983834;28;20046;-87
2022/08/14 07:33:22;;;;;;;9.13;8.30;;;29.90;98.00;;;;;;4978295;28;20184;-86
2022/08/14 07:35:48;;;;;;;8.48;7.70;;;31.00;97.40;;;;;;4978202;28;20042;-87
2022/08/14 07:38:20;;;;;;;9.15;8.43;;;31.10;97.40;;;;;;4994248;28;20050;-88
2022/08/14 07:40:47;;;;;;;8.80;8.00;;;31.00;97.50;;;;;;4977246;28;20128;-87
2022/08/14 07:43:12;;;;;;;9.15;8.25;;;31.10;97.10;;;;;;4976990;28;20050;-87
2022/08/14 07:45:39;;;;;;;8.32;7.53;;;31.40;97.00;;;;;;4977270;28;20057;-87
2022/08/14 07:48:05;;;;;;;8.20;7.50;;;31.40;96.80;;;;;;4961110;28;20546;-87
2022/08/14 07:50:31;;;;;;;8.02;7.22;;;31.50;96.90;;;;;;4977193;28;20056;-87
2022/08/14 07:52:58;;;;;;;7.78;7.00;;;31.90;96.70;;;;;;4969828;28;20046;-88
2022/08/14 07:55:24;;;;;;;8.10;7.28;;;32.20;96.40;;;;;;4999995;28;20298;-88
2022/08/14 07:57:50;;;;;;;9.05;6.97;;;32.30;96.40;;;;;;4994568;28;20038;-87
2022/08/14 08:00:21;;;;;;;8.02;7.28;;;31.90;96.40;;;;;;4987949;28;20042;-87
2022/08/14 08:02:53;;;;;;;8.15;7.40;;;31.70;96.60;;;;;;4982068;28;20509;-86
2022/08/14 08:05:20;;;;;;;7.95;7.22;;;31.90;96.40;;;;;;4961540;28;20050;-87
2022/08/14 08:07:46;;;;;;;7.72;7.13;;;31.80;96.60;;;;;;4977617;28;20133;-86
2022/08/14 08:10:30;;;;;;;7.40;6.55;;;32.10;96.30;;;;;;4975974;28;20125;-87
2022/08/14 08:13:16;;;;;;;7.50;6.75;;;32.60;96.00;;;;;;5008675;28;20058;-87
2022/08/14 08:15:48;;;;;;;7.80;6.95;;;32.30;96.10;;;;;;4979328;28;20061;-87
2022/08/14 08:18:15;;;;;;;7.90;6.88;;;32.30;95.70;;;;;;4992620;28;20137;-86
2022/08/14 08:20:47;;;;;;;7.03;6.38;;;32.70;95.80;;;;;;4996965;28;20065;-86
2022/08/14 08:23:14;;;;;;;7.65;7.05;;;32.50;95.60;;;;;;4962849;28;20050;-86
2022/08/14 08:25:44;;;;;;;9.00;6.75;;;32.70;95.40;;;;;;4994570;28;20272;-86
2022/08/14 08:28:14;;;;;;;7.10;6.50;;;31.90;95.60;;;;;;4962063;28;20058;-87
2022/08/14 08:30:42;;;;;;;7.15;6.53;;;32.60;95.60;;;;;;4978349;28;20069;-87
2022/08/14 08:33:09;;;;;;;7.75;5.97;;;32.70;95.40;;;;;;4961752;28;20065;-87
2022/08/14 08:35:35;;;;;;;6.72;6.22;;;32.80;95.20;;;;;;4977600;28;20140;-87
2022/08/14 08:38:04;;;;;;;8.18;6.68;;;32.80;95.90;;;;;;4976937;28;20054;-88
2022/08/14 08:40:38;;;;;;;6.95;6.45;;;33.00;95.00;;;;;;4976777;28;20341;-87
2022/08/14 08:43:24;;;;;;;9.43;6.72;;;32.80;94.60;;;;;;4976996;28;20397;-88
2022/08/14 08:46:05;;;;;;;7.60;6.47;;;32.30;95.10;;;;;;4980084;28;20063;-88
2022/08/14 08:48:52;;;;;;;7.30;6.70;;;32.50;95.00;;;;;;4981570;28;20057;-86
2022/08/14 08:51:23;;;;;;;8.02;5.82;;;32.70;94.80;;;;;;5028909;28;20055;-84
2022/08/14 08:54:15;;;;;;;6.20;5.60;;;32.60;94.70;;;;;;5000514;28;20069;-84
2022/08/14 08:56:48;;;;;;;6.57;5.97;;;32.60;94.70;;;;;;4981454;28;20407;-88
2022/08/14 08:59:39;;;;;;;6.60;5.90;;;33.10;94.70;;;;;;4943688;28;20085;-85
2022/08/14 09:02:07;;;;;;;6.57;5.97;;;33.70;94.50;;;;;;4962027;28;20049;-85
2022/08/14 09:04:40;;;;;;;6.38;5.75;;;33.80;94.00;;;;;;4988723;28;20062;-85
2022/08/14 09:07:06;;;;;;;8.80;6.00;;;33.60;94.10;;;;;;4975637;28;20133;-86
2022/08/14 09:09:32;;;;;;;6.18;5.57;;;33.50;94.50;;;;;;4975202;28;20043;-87
2022/08/14 09:11:59;;;;;;;6.85;6.25;;;33.50;93.90;;;;;;4960037;28;20578;-85
2022/08/14 09:14:28;;;;;;;6.55;5.95;;;32.90;94.20;;;;;;4974909;28;20046;-88
2022/08/14 09:16:54;;;;;;;6.40;5.90;;;32.40;94.50;;;;;;4968051;28;20049;-87
2022/08/14 09:19:20;;;;;;;6.90;6.20;;;32.70;94.50;;;;;;4959913;28;20100;-87
2022/08/14 09:21:47;;;;;;;8.30;7.05;;;32.90;94.30;;;;;;4975866;28;20495;-87
2022/08/14 09:24:13;;;;;;;6.78;5.90;;;33.10;94.40;;;;;;4958259;28;20118;-86
2022/08/14 09:26:40;;;;;;;6.90;6.40;;;33.00;94.40;;;;;;4977427;28;20443;-87
2022/08/14 09:29:07;;;;;;;6.80;5.53;;;32.90;94.30;;;;;;4987093;28;20030;-87
2022/08/14 09:31:33;;;;;;;6.70;6.20;;;33.10;94.00;;;;;;4961861;28;20049;-87
2022/08/14 09:34:26;;;;;;;5.63;5.20;;;33.10;94.10;;;;;;4956634;28;20049;-87
2022/08/14 09:37:15;;;;;;;6.07;5.45;;;33.00;94.40;;;;;;4993618;28;20061;-86
2022/08/14 09:39:49;;;;;;;5.53;5.13;;;33.70;93.90;;;;;;4981719;28;20395;-86
2022/08/14 09:42:40;;;;;;;6.28;5.50;;;33.40;94.10;;;;;;4975718;28;20042;-86
2022/08/14 09:45:15;;;;;;;5.95;5.47;;;33.80;93.40;;;;;;4997508;28;20042;-84
2022/08/14 09:47:52;;;;;;;5.05;4.65;;;33.50;93.40;;;;;;4989636;28;20050;-86
2022/08/14 09:50:24;;;;;;;5.45;5.05;;;33.50;93.40;;;;;;4963206;28;20398;-86
2022/08/14 09:53:06;;;;;;;5.32;4.82;;;33.50;93.40;;;;;;4978341;28;20046;-87
2022/08/14 09:55:34;;;;;;;5.20;4.75;;;32.30;93.00;;;;;;4946997;28;20120;-87
2022/08/14 09:58:18;;;;;;;6.13;5.35;;;33.30;93.40;;;;;;4963822;28;20042;-85
2022/08/14 10:01:00;;;;;;;5.07;4.68;;;33.40;93.50;;;;;;4961598;28;20385;-87
2022/08/14 10:03:31;;;;;;;4.93;4.43;;;34.40;93.60;;;;;;4960060;28;20045;-87
2022/08/14 10:06:26;;;;;;;5.30;4.90;;;33.40;93.30;;;;;;4987803;28;20054;-88
2022/08/14 10:09:01;;;;;;;5.10;4.60;;;33.30;92.90;;;;;;4990017;28;20069;-88
2022/08/14 10:11:30;;;;;;;5.60;5.10;;;33.60;93.00;;;;;;4961852;28;20156;-87
2022/08/14 10:14:07;;;;;;;5.22;4.72;;;33.80;93.40;;;;;;4973055;28;20050;-86
2022/08/14 10:16:43;;;;;;;5.05;4.65;;;33.90;92.90;;;;;;4986100;28;20493;-85
2022/08/14 10:19:18;;;;;;;5.53;5.03;;;34.20;93.00;;;;;;4926143;29;20062;-86
2022/08/14 10:22:01;;;;;;;5.32;4.80;;;34.60;92.70;;;;;;4922170;29;20056;-87
2022/08/14 10:24:40;;;;;;;6.38;4.95;;;34.70;92.40;;;;;;4936707;29;20500;-87
2022/08/14 10:27:23;;;;;;;5.70;5.20;;;34.60;92.40;;;;;;4937338;29;20052;-86
2022/08/14 10:29:58;;;;;;;5.97;5.47;;;34.40;92.90;;;;;;4920881;29;20087;-88
2022/08/14 10:32:25;;;;;;;7.45;5.53;;;34.60;92.30;;;;;;4921363;29;20503;-86
2022/08/14 10:34:51;;;;;;;6.40;5.82;;;33.60;92.50;;;;;;4937049;29;20048;-87
2022/08/14 10:37:17;;;;;;;5.82;5.35;;;33.60;92.70;;;;;;4935868;28;20050;-85
2022/08/14 10:39:45;;;;;;;5.95;5.45;;;33.50;93.10;;;;;;4968440;28;20047;-86
2022/08/14 10:42:13;;;;;;;5.43;5.03;;;33.00;93.20;;;;;;4993782;28;20047;-86
2022/08/14 10:44:41;;;;;;;5.47;5.07;;;33.10;93.00;;;;;;4971701;28;20055;-87
2022/08/14 10:47:11;;;;;;;5.60;5.10;;;32.50;92.90;;;;;;4972164;28;20043;-86
2022/08/14 10:49:37;;;;;;;5.57;5.18;;;32.40;93.30;;;;;;4941229;29;20106;-85
2022/08/14 10:52:07;;;;;;;6.22;5.72;;;32.80;93.20;;;;;;4962038;28;20047;-87
2022/08/14 10:54:40;;;;;;;6.00;5.38;;;32.60;93.20;;;;;;4957756;29;20460;-87
2022/08/14 10:57:34;;;;;;;6.60;5.82;;;32.90;93.40;;;;;;4959047;28;20058;-87
2022/08/14 11:00:01;;;;;;;6.82;6.03;;;32.70;93.40;;;;;;4961841;28;20351;-86
2022/08/14 11:02:30;;;;;;;6.88;6.28;;;32.80;93.40;;;;;;4960974;28;20059;-87
2022/08/14 11:05:17;;;;;;;7.25;6.65;;;32.50;93.40;;;;;;4962837;28;20103;-87
2022/08/14 11:07:55;;;;;;;6.32;5.72;;;32.50;93.60;;;;;;5003126;28;20051;-88
2022/08/14 11:10:25;;;;;;;7.03;6.30;;;32.60;93.60;;;;;;4978174;28;20058;-88
2022/08/14 11:12:54;;;;;;;6.22;5.63;;;32.90;93.40;;;;;;4971480;28;20455;-86
2022/08/14 11:15:26;;;;;;;5.55;5.15;;;33.00;93.20;;;;;;4976487;28;20109;-88
2022/08/14 11:17:52;;;;;;;5.82;5.38;;;33.00;92.50;;;;;;4973279;28;20391;-88
2022/08/14 11:20:23;;;;;;;6.20;5.60;;;32.60;92.90;;;;;;4976220;28;20058;-87
2022/08/14 11:22:56;;;;;;;6.30;5.65;;;32.70;93.30;;;;;;4975025;28;20055;-88
2022/08/14 11:25:23;;;;;;;8.52;6.30;;;31.90;93.30;;;;;;4959664;28;20050;-88
2022/08/14 11:27:52;;;;;;;6.20;5.72;;;32.10;93.30;;;;;;4975586;28;20050;-87
2022/08/14 11:30:21;;;;;;;6.30;5.70;;;32.20;93.40;;;;;;4974619;28;20043;-90
2022/08/14 11:32:49;;;;;;;6.95;6.30;;;31.90;93.70;;;;;;4975694;28;20078;-90
2022/08/14 11:35:25;;;;;;;6.60;6.00;;;31.70;93.40;;;;;;4997834;28;20082;-88
2022/08/14 11:37:55;;;;;;;6.78;6.07;;;31.60;93.70;;;;;;4978622;28;20063;-88
2022/08/14 11:40:22;;;;;;;6.43;5.93;;;31.30;94.20;;;;;;4986705;28;20070;-91
2022/08/14 11:42:48;;;;;;;6.60;6.00;;;31.20;93.90;;;;;;4978723;28;20046;-91
2022/08/14 11:45:14;;;;;;;6.40;5.90;;;31.40;93.80;;;;;;4976969;28;20051;-90
2022/08/14 11:47:40;;;;;;;7.10;6.38;;;31.30;93.80;;;;;;4973812;28;20106;-93
2022/08/14 11:50:19;;;;;;;6.90;6.30;;;31.50;93.90;;;;;;4973718;28;20101;-90
2022/08/14 11:52:45;;;;;;;6.68;6.03;;;30.80;94.00;;;;;;4970719;28;20039;-89
2022/08/14 11:55:13;;;;;;;7.50;6.35;;;30.60;94.10;;;;;;4972860;28;20816;-91
2022/08/14 11:57:40;;;;;;;6.30;5.80;;;30.50;94.20;;;;;;4972836;28;20053;-90
2022/08/14 12:00:10;;;;;;;7.93;7.18;;;30.80;94.20;;;;;;4975419;28;20061;-92
2022/08/14 12:02:36;;;;;;;6.43;5.70;;;31.00;94.00;;;;;;4957580;28;20047;-92
2022/08/14 12:05:02;;;;;;;6.60;5.60;;;31.30;94.00;;;;;;4957147;28;20055;-90
2022/08/14 12:07:27;;;;;;;5.57;5.07;;;30.20;93.30;;;;;;4955774;28;20525;-90
2022/08/14 12:09:54;;;;;;;5.90;5.30;;;31.40;93.50;;;;;;4972157;28;20050;-91
2022/08/14 12:12:25;;;;;;;5.78;5.28;;;31.60;93.60;;;;;;4971799;28;20384;-90
2022/08/14 12:14:59;;;;;;;4.40;4.00;;;31.20;93.50;;;;;;4974897;28;20047;-89
2022/08/14 12:17:32;;;;;;;5.95;5.45;;;31.70;92.90;;;;;;4992001;28;20050;-91
2022/08/14 12:19:59;;;;;;;5.72;5.32;;;31.70;93.30;;;;;;4976416;28;20085;-89
2022/08/14 12:22:35;;;;;;;5.65;5.15;;;31.50;93.10;;;;;;4961562;28;20085;-93
2022/08/14 12:25:07;;;;;;;6.13;5.53;;;31.50;93.40;;;;;;4975671;28;20217;-89
2022/08/14 12:27:48;;;;;;;6.13;5.53;;;31.40;93.40;;;;;;4992567;28;20077;-89
2022/08/14 12:30:34;;;;;;;5.10;4.68;;;31.50;93.40;;;;;;4962910;28;20050;-89
2022/08/14 12:33:04;;;;;;;6.13;4.78;;;31.70;93.30;;;;;;4961104;28;20057;-89
2022/08/14 12:35:41;;;;;;;5.75;5.20;;;31.40;92.90;;;;;;4975835;28;20077;-88
2022/08/14 12:38:09;;;;;;;6.25;5.75;;;31.50;93.00;;;;;;4992053;28;20054;-89
2022/08/14 12:40:48;;;;;;;6.90;5.72;;;31.50;93.10;;;;;;4980592;28;20054;-88
2022/08/14 12:43:16;;;;;;;6.65;5.85;;;31.50;93.00;;;;;;4981994;28;20038;-88
2022/08/14 12:45:53;;;;;;;7.03;5.35;;;31.60;93.90;;;;;;4996868;28;20050;-89
2022/08/14 12:48:20;;;;;;;9.15;6.45;;;32.00;93.20;;;;;;4987444;28;20449;-90
2022/08/14 12:50:46;;;;;;;5.80;5.20;;;31.70;93.30;;;;;;4948980;28;20060;-91
2022/08/14 12:53:14;;;;;;;6.45;5.80;;;31.90;93.40;;;;;;4963326;28;20093;-92
2022/08/14 12:55:40;;;;;;;7.20;6.00;;;32.30;93.50;;;;;;4984062;28;20046;-91
2022/08/14 12:58:07;;;;;;;6.15;5.65;;;32.40;93.00;;;;;;4953927;28;20050;-88
2022/08/14 13:00:36;;;;;;;6.25;5.65;;;32.40;92.80;;;;;;4983791;28;20045;-85